createdAt,value
2023-05-10T00:00:23.680Z,51.51
2023-05-10T00:03:08.815Z,52.21
2023-05-10T00:05:36.625Z,51.65
2023-05-10T00:08:04.290Z,51.92
2023-05-10T00:10:31.916Z,51.96
2023-05-10T00:12:59.568Z,52.03
2023-05-10T00:15:27.262Z,52.00
2023-05-10T00:17:54.941Z,51.93
2023-05-10T00:20:22.630Z,51.91
2023-05-10T00:22:50.271Z,52.20
2023-05-10T00:25:17.841Z,52.40
2023-05-10T00:27:45.576Z,52.58
2023-05-10T00:30:13.363Z,52.58
2023-05-10T00:32:41.342Z,53.24
2023-05-10T00:35:09.041Z,53.06
2023-05-10T00:37:36.685Z,53.13
2023-05-10T00:40:04.292Z,52.89
2023-05-10T00:42:31.968Z,53.02
2023-05-10T00:44:59.611Z,53.03
2023-05-10T00:47:27.247Z,53.00
2023-05-10T00:49:54.910Z,52.85
2023-05-10T00:52:24.445Z,52.94
2023-05-10T00:54:52.237Z,53.40
2023-05-10T00:57:19.866Z,53.21
2023-05-10T00:59:47.499Z,53.45
2023-05-10T01:02:15.507Z,53.52
2023-05-10T01:04:43.285Z,53.49
2023-05-10T01:07:11.762Z,53.39
2023-05-10T01:09:39.359Z,53.58
2023-05-10T01:12:08.439Z,53.80
2023-05-10T01:14:37.415Z,53.63
2023-05-10T01:17:05.068Z,53.78
2023-05-10T01:19:33.005Z,53.82
2023-05-10T01:22:00.660Z,54.21
2023-05-10T01:24:28.261Z,54.19
2023-05-10T01:26:55.848Z,54.18
2023-05-10T01:29:23.460Z,54.09
2023-05-10T01:31:51.168Z,54.12
2023-05-10T01:34:18.838Z,54.26
2023-05-10T01:36:46.456Z,54.09
2023-05-10T01:39:14.133Z,53.81
2023-05-10T01:41:42.298Z,53.62
2023-05-10T01:44:09.901Z,53.91
2023-05-10T01:46:40.789Z,54.08
2023-05-10T01:49:08.548Z,54.22
2023-05-10T01:51:36.205Z,53.93
2023-05-10T01:54:03.831Z,53.67
2023-05-10T01:56:31.919Z,53.88
2023-05-10T01:58:59.510Z,54.13
2023-05-10T02:01:27.452Z,53.86
2023-05-10T02:03:55.472Z,54.13
2023-05-10T02:06:23.110Z,54.24
2023-05-10T02:08:50.737Z,54.29
2023-05-10T02:11:18.534Z,54.12
2023-05-10T02:13:46.276Z,54.00
2023-05-10T02:16:13.929Z,54.32
2023-05-10T02:18:41.616Z,54.41
2023-05-10T02:21:09.233Z,54.16
2023-05-10T02:23:36.890Z,54.23
2023-05-10T02:26:04.606Z,54.26
2023-05-10T02:28:32.251Z,54.41
2023-05-10T02:30:59.871Z,54.09
2023-05-10T02:33:28.010Z,54.33
2023-05-10T02:35:55.668Z,54.44
2023-05-10T02:38:23.314Z,55.02
2023-05-10T02:40:50.946Z,54.62
2023-05-10T02:43:19.347Z,55.05
2023-05-10T02:45:46.986Z,55.14
2023-05-10T02:48:14.720Z,55.24
2023-05-10T02:50:42.480Z,55.46
2023-05-10T02:53:10.128Z,55.59
2023-05-10T02:55:37.778Z,55.50
2023-05-10T02:58:05.442Z,55.51
2023-05-10T03:00:33.457Z,55.67
2023-05-10T03:03:01.607Z,55.89
2023-05-10T03:05:29.298Z,55.91
2023-05-10T03:07:57.168Z,56.07
2023-05-10T03:10:24.776Z,55.90
2023-05-10T03:12:52.460Z,55.98
2023-05-10T03:15:20.203Z,56.10
2023-05-10T03:17:48.456Z,56.13
2023-05-10T03:20:16.383Z,56.10
2023-05-10T03:22:44.318Z,56.29
2023-05-10T03:25:12.102Z,56.37
2023-05-10T03:27:39.717Z,56.31
2023-05-10T03:30:07.468Z,56.58
2023-05-10T03:32:35.997Z,56.62
2023-05-10T03:35:04.044Z,56.83
2023-05-10T03:37:31.649Z,56.78
2023-05-10T03:39:59.286Z,56.82
2023-05-10T03:42:26.885Z,57.00
2023-05-10T03:44:54.526Z,56.96
2023-05-10T03:47:22.163Z,56.81
2023-05-10T03:49:49.769Z,56.95
2023-05-10T03:52:17.553Z,57.18
2023-05-10T03:54:45.175Z,57.29
2023-05-10T03:57:12.793Z,57.23
2023-05-10T03:59:40.470Z,57.25
2023-05-10T04:02:08.196Z,57.49
2023-05-10T04:04:35.988Z,57.48
2023-05-10T04:07:03.659Z,57.71
2023-05-10T04:09:31.314Z,57.37
2023-05-10T04:11:59.002Z,57.41
2023-05-10T04:14:26.631Z,57.51
2023-05-10T04:16:54.300Z,57.40
2023-05-10T04:19:22.407Z,57.70
2023-05-10T04:21:50.086Z,57.47
2023-05-10T04:24:17.774Z,57.47
2023-05-10T04:26:45.438Z,57.35
2023-05-10T04:29:13.050Z,57.03
2023-05-10T04:31:40.785Z,57.42
2023-05-10T04:34:08.410Z,57.22
2023-05-10T04:36:37.021Z,57.02
2023-05-10T04:39:04.659Z,57.13
2023-05-10T04:41:32.282Z,57.38
2023-05-10T04:43:59.896Z,57.19
2023-05-10T04:46:27.610Z,57.13
2023-05-10T04:48:55.390Z,56.92
2023-05-10T04:51:23.031Z,56.67
2023-05-10T04:54:01.714Z,56.78
2023-05-10T04:56:33.563Z,56.76
2023-05-10T04:59:01.187Z,56.76
2023-05-10T05:01:28.908Z,56.62
2023-05-10T05:03:56.819Z,56.29
2023-05-10T05:06:26.101Z,56.13
2023-05-10T05:08:53.816Z,56.17
2023-05-10T05:11:22.185Z,55.78
2023-05-10T05:13:49.793Z,55.77
2023-05-10T05:16:17.848Z,55.78
2023-05-10T05:18:45.602Z,55.48
2023-05-10T05:21:13.205Z,55.34
2023-05-10T05:23:40.818Z,55.35
2023-05-10T05:26:08.467Z,55.36
2023-05-10T05:28:38.414Z,55.30
2023-05-10T05:31:06.745Z,55.13
2023-05-10T05:33:34.554Z,55.22
2023-05-10T05:36:02.188Z,55.03
2023-05-10T05:38:29.866Z,55.03
2023-05-10T05:40:57.613Z,54.83
2023-05-10T05:43:25.909Z,54.59
2023-05-10T05:45:53.592Z,54.71
2023-05-10T05:48:21.243Z,54.52
2023-05-10T05:50:48.973Z,54.41
2023-05-10T05:53:16.985Z,54.36
2023-05-10T05:55:44.646Z,54.31
2023-05-10T05:58:12.373Z,54.13
2023-05-10T06:00:40.122Z,53.77
2023-05-10T06:03:08.186Z,53.79
2023-05-10T06:05:35.997Z,53.71
2023-05-10T06:08:03.612Z,53.82
2023-05-10T06:10:31.723Z,53.64
2023-05-10T06:12:59.544Z,53.54
2023-05-10T06:15:27.256Z,53.69
2023-05-10T06:17:54.918Z,53.72
2023-05-10T06:20:22.532Z,53.63
2023-05-10T06:22:50.152Z,53.43
2023-05-10T06:25:19.525Z,53.38
2023-05-10T06:27:51.751Z,53.16
2023-05-10T06:30:24.155Z,53.07
2023-05-10T06:32:51.930Z,53.68
2023-05-10T06:35:19.835Z,53.40
2023-05-10T06:37:47.967Z,53.33
2023-05-10T06:40:15.591Z,53.03
2023-05-10T06:42:43.287Z,53.16
2023-05-10T06:45:10.990Z,53.09
2023-05-10T06:47:39.443Z,52.69
2023-05-10T06:50:07.293Z,52.65
2023-05-10T06:52:34.915Z,52.33
2023-05-10T06:55:02.826Z,52.33
2023-05-10T06:57:32.080Z,52.21
2023-05-10T07:00:00.112Z,52.12
2023-05-10T07:02:28.123Z,52.10
2023-05-10T07:04:56.125Z,52.10
2023-05-10T07:07:23.739Z,51.93
2023-05-10T07:09:52.394Z,51.76
2023-05-10T07:12:20.086Z,51.53
2023-05-10T07:14:47.793Z,51.48
2023-05-10T07:17:15.562Z,51.30
2023-05-10T07:19:43.525Z,51.45
2023-05-10T07:22:11.190Z,51.30
2023-05-10T07:24:38.814Z,51.22
2023-05-10T07:27:06.694Z,51.14
2023-05-10T07:29:34.311Z,50.85
2023-05-10T07:32:02.380Z,50.59
2023-05-10T07:34:31.239Z,50.69
2023-05-10T07:36:58.904Z,50.83
2023-05-10T07:39:28.008Z,50.39
2023-05-10T07:41:55.970Z,50.29
2023-05-10T07:44:23.683Z,50.04
2023-05-10T07:46:51.458Z,49.94
2023-05-10T07:49:19.224Z,49.52
2023-05-10T07:51:46.913Z,49.59
2023-05-10T07:54:14.572Z,49.46
2023-05-10T07:56:46.575Z,49.09
2023-05-10T07:59:14.200Z,49.29
2023-05-10T08:01:41.814Z,49.34
2023-05-10T08:04:10.069Z,48.82
2023-05-10T08:06:37.718Z,48.45
2023-05-10T08:09:05.303Z,48.92
2023-05-10T08:11:34.395Z,49.36
2023-05-10T08:14:02.749Z,48.95
2023-05-10T08:16:30.436Z,48.31
2023-05-10T08:18:58.252Z,48.20
2023-05-10T08:21:25.983Z,48.14
2023-05-10T08:23:53.697Z,47.89
2023-05-10T08:26:22.701Z,48.18
2023-05-10T08:28:50.692Z,48.22
2023-05-10T08:31:19.224Z,47.68
2023-05-10T08:33:46.953Z,46.60
2023-05-10T08:36:20.757Z,47.02
2023-05-10T08:38:50.212Z,47.36
2023-05-10T08:41:18.014Z,47.50
2023-05-10T08:43:47.513Z,46.86
2023-05-10T08:46:15.195Z,47.45
2023-05-10T08:48:42.831Z,47.54
2023-05-10T08:51:10.590Z,47.38
2023-05-10T08:53:38.301Z,46.73
2023-05-10T08:56:05.945Z,46.75
2023-05-10T08:58:33.611Z,46.84
2023-05-10T09:01:01.637Z,45.65
2023-05-10T09:03:29.560Z,45.25
2023-05-10T09:05:57.248Z,46.12
2023-05-10T09:08:26.910Z,46.36
2023-05-10T09:10:54.780Z,46.54
2023-05-10T09:13:22.445Z,46.53
2023-05-10T09:15:50.066Z,46.91
2023-05-10T09:18:17.745Z,46.93
2023-05-10T09:20:46.144Z,47.11
2023-05-10T09:23:13.881Z,46.68
2023-05-10T09:25:41.590Z,46.70
2023-05-10T09:28:09.905Z,46.61
2023-05-10T09:30:37.808Z,46.40
2023-05-10T09:33:05.556Z,46.19
2023-05-10T09:35:33.517Z,45.85
2023-05-10T09:38:01.200Z,47.18
2023-05-10T09:40:28.910Z,46.00
2023-05-10T09:42:56.592Z,45.95
2023-05-10T09:45:24.236Z,45.52
2023-05-10T09:47:51.931Z,44.80
2023-05-10T09:50:19.728Z,44.61
2023-05-10T09:52:47.679Z,44.02
2023-05-10T09:55:15.553Z,43.68
2023-05-10T09:57:43.398Z,44.11
2023-05-10T10:00:11.361Z,43.65
2023-05-10T10:02:39.063Z,44.10
2023-05-10T10:05:06.870Z,43.86
2023-05-10T10:07:34.568Z,42.73
2023-05-10T10:10:02.194Z,44.14
2023-05-10T10:12:29.851Z,44.45
2023-05-10T10:14:57.510Z,44.05
2023-05-10T10:17:25.163Z,44.11
2023-05-10T10:19:52.832Z,43.97
2023-05-10T10:22:20.737Z,43.28
2023-05-10T10:24:48.354Z,43.37
2023-05-10T10:27:16.055Z,44.17
2023-05-10T10:29:43.654Z,42.86
2023-05-10T10:32:11.274Z,42.43
2023-05-10T10:34:38.899Z,42.15
2023-05-10T10:37:06.550Z,43.05
2023-05-10T10:39:34.363Z,43.09
2023-05-10T10:42:03.846Z,43.32
2023-05-10T10:44:32.042Z,42.71
2023-05-10T10:46:59.766Z,42.56
2023-05-10T10:49:27.932Z,43.12
2023-05-10T10:51:55.665Z,43.38
2023-05-10T10:54:23.321Z,43.22
2023-05-10T10:56:51.877Z,42.78
2023-05-10T10:59:19.506Z,41.96
2023-05-10T11:01:47.437Z,42.69
2023-05-10T11:04:15.173Z,43.56
2023-05-10T11:06:43.657Z,43.07
2023-05-10T11:09:11.293Z,43.32
2023-05-10T11:11:38.912Z,42.94
2023-05-10T11:14:06.619Z,42.75
2023-05-10T11:16:34.343Z,42.84
2023-05-10T11:19:03.338Z,41.50
2023-05-10T11:21:31.575Z,42.62
2023-05-10T11:23:59.522Z,43.07
2023-05-10T11:26:27.366Z,42.63
2023-05-10T11:28:59.687Z,42.07
2023-05-10T11:31:28.159Z,41.61
2023-05-10T11:33:56.233Z,42.96
2023-05-10T11:36:23.912Z,41.60
2023-05-10T11:38:51.532Z,41.81
2023-05-10T11:41:19.204Z,42.25
2023-05-10T11:43:46.817Z,41.06
2023-05-10T11:46:14.478Z,41.79
2023-05-10T11:48:42.132Z,41.86
2023-05-10T11:51:09.824Z,41.57
2023-05-10T11:53:37.485Z,41.91
2023-05-10T11:56:05.616Z,41.16
2023-05-10T11:58:33.470Z,40.85
2023-05-10T12:01:01.117Z,41.41
2023-05-10T12:03:29.225Z,41.50
2023-05-10T12:05:57.094Z,41.10
2023-05-10T12:08:24.791Z,40.98
2023-05-10T12:10:52.468Z,41.41
2023-05-10T12:13:20.132Z,40.99
2023-05-10T12:15:47.792Z,40.38
2023-05-10T12:18:15.498Z,39.62
2023-05-10T12:20:43.652Z,38.90
2023-05-10T12:23:11.644Z,40.02
2023-05-10T12:25:40.078Z,39.49
2023-05-10T12:28:08.107Z,38.63
2023-05-10T12:30:35.705Z,39.51
2023-05-10T12:33:03.725Z,40.01
2023-05-10T12:35:31.616Z,38.97
2023-05-10T12:37:59.196Z,39.43
2023-05-10T12:40:26.790Z,39.25
2023-05-10T12:42:54.472Z,39.87
2023-05-10T12:45:22.110Z,39.47
2023-05-10T12:47:49.781Z,38.98
2023-05-10T12:50:17.593Z,37.88
2023-05-10T12:52:45.425Z,38.66
2023-05-10T12:55:13.029Z,39.44
2023-05-10T12:57:40.602Z,39.42
2023-05-10T13:00:08.184Z,38.96
2023-05-10T13:02:36.104Z,38.88
2023-05-10T13:05:03.888Z,37.38
2023-05-10T13:07:31.542Z,38.90
2023-05-10T13:09:59.105Z,38.99
2023-05-10T13:12:26.681Z,37.99
2023-05-10T13:14:54.324Z,38.49
2023-05-10T13:17:21.968Z,38.29
2023-05-10T13:19:49.531Z,38.57
2023-05-10T13:22:22.951Z,37.00
2023-05-10T13:24:56.540Z,37.94
2023-05-10T13:27:24.095Z,38.11
2023-05-10T13:29:51.648Z,36.97
2023-05-10T13:32:19.188Z,37.33
2023-05-10T13:34:46.790Z,37.32
2023-05-10T13:37:14.356Z,37.64
2023-05-10T13:39:41.894Z,37.75
2023-05-10T13:42:09.461Z,36.09
2023-05-10T13:44:37.178Z,37.30
2023-05-10T13:47:04.772Z,37.75
2023-05-10T13:49:32.363Z,37.16
2023-05-10T13:52:00.048Z,37.48
2023-05-10T13:54:30.551Z,36.81
2023-05-10T13:56:58.159Z,36.91
2023-05-10T13:59:26.502Z,36.65
2023-05-10T14:01:54.134Z,37.21
2023-05-10T14:04:21.744Z,37.10
2023-05-10T14:06:50.208Z,35.74
2023-05-10T14:09:18.420Z,36.12
2023-05-10T14:11:46.691Z,36.36
2023-05-10T14:14:14.427Z,36.18
2023-05-10T14:16:42.072Z,35.35
2023-05-10T14:19:09.801Z,35.73
2023-05-10T14:21:37.494Z,35.94
2023-05-10T14:24:05.646Z,36.00
2023-05-10T14:26:33.207Z,36.34
2023-05-10T14:29:00.798Z,36.46
2023-05-10T14:31:28.413Z,35.74
2023-05-10T14:33:56.037Z,36.04
2023-05-10T14:36:23.665Z,34.95
2023-05-10T14:38:51.915Z,34.59
2023-05-10T14:41:19.498Z,35.59
2023-05-10T14:43:47.059Z,35.78
2023-05-10T14:46:14.681Z,35.62
2023-05-10T14:48:42.280Z,35.22
2023-05-10T14:51:09.975Z,35.91
2023-05-10T14:53:37.541Z,35.39
2023-05-10T14:56:05.187Z,35.47
2023-05-10T14:58:35.177Z,35.19
2023-05-10T15:01:02.852Z,35.38
2023-05-10T15:03:33.224Z,35.98
2023-05-10T15:06:04.798Z,34.99
2023-05-10T15:08:38.048Z,35.63
2023-05-10T15:11:12.873Z,36.03
2023-05-10T15:13:46.713Z,35.76
2023-05-10T15:16:19.102Z,35.08
2023-05-10T15:18:47.911Z,35.18
2023-05-10T15:21:20.013Z,35.35
2023-05-10T15:23:49.232Z,35.64
2023-05-10T15:26:18.005Z,36.16
2023-05-10T15:28:51.794Z,34.99
2023-05-10T15:31:20.509Z,35.45
2023-05-10T15:33:48.432Z,35.58
2023-05-10T15:36:16.346Z,35.57
2023-05-10T15:38:43.926Z,36.12
2023-05-10T15:41:11.460Z,35.86
2023-05-10T15:43:39.012Z,35.74
2023-05-10T15:46:07.096Z,35.24
2023-05-10T15:48:34.728Z,35.05
2023-05-10T15:51:02.328Z,34.67
2023-05-10T15:53:30.074Z,34.48
2023-05-10T15:55:57.695Z,35.00
2023-05-10T15:58:25.355Z,34.85
2023-05-10T16:00:53.018Z,33.81
2023-05-10T16:03:20.786Z,32.55
2023-05-10T16:05:48.734Z,32.61
2023-05-10T16:08:16.361Z,32.45
2023-05-10T16:10:44.002Z,32.95
2023-05-10T16:13:11.957Z,32.56
2023-05-10T16:15:39.588Z,32.23
2023-05-10T16:18:07.251Z,31.82
2023-05-10T16:20:34.859Z,31.93
2023-05-10T16:23:02.496Z,31.95
2023-05-10T16:25:30.160Z,31.91
2023-05-10T16:27:57.858Z,32.59
2023-05-10T16:30:27.423Z,32.12
2023-05-10T16:32:55.431Z,32.27
2023-05-10T16:35:24.080Z,32.94
2023-05-10T16:37:51.728Z,32.94
2023-05-10T16:40:19.466Z,33.34
2023-05-10T16:42:47.232Z,33.39
2023-05-10T16:45:16.590Z,33.62
2023-05-10T16:47:44.624Z,33.66
2023-05-10T16:50:12.514Z,33.39
2023-05-10T16:52:40.257Z,33.32
2023-05-10T16:55:07.926Z,33.67
2023-05-10T16:57:35.676Z,34.53
2023-05-10T17:00:03.419Z,34.27
2023-05-10T17:02:31.211Z,33.80
2023-05-10T17:04:58.969Z,33.94
2023-05-10T17:07:28.893Z,34.42
2023-05-10T17:09:56.892Z,34.39
2023-05-10T17:12:24.520Z,34.00
2023-05-10T17:14:52.130Z,34.58
2023-05-10T17:17:19.728Z,34.29
2023-05-10T17:19:47.343Z,35.02
2023-05-10T17:22:14.943Z,34.80
2023-05-10T17:24:42.567Z,34.72
2023-05-10T17:27:10.231Z,34.89
2023-05-10T17:29:39.317Z,35.15
2023-05-10T17:32:09.266Z,35.38
2023-05-10T17:34:37.222Z,35.36
2023-05-10T17:37:05.196Z,35.17
2023-05-10T17:39:32.805Z,35.83
2023-05-10T17:42:01.014Z,36.16
2023-05-10T17:44:28.620Z,35.89
2023-05-10T17:46:56.237Z,35.86
2023-05-10T17:49:23.873Z,35.67
2023-05-10T17:51:51.496Z,35.85
2023-05-10T17:54:19.217Z,36.06
2023-05-10T17:56:46.830Z,35.61
2023-05-10T17:59:14.434Z,36.15
2023-05-10T18:01:42.097Z,36.34
2023-05-10T18:04:09.995Z,36.51
2023-05-10T18:06:37.708Z,36.37
2023-05-10T18:09:07.375Z,36.49
2023-05-10T18:11:35.051Z,36.70
2023-05-10T18:14:02.661Z,36.81
2023-05-10T18:16:30.396Z,36.82
2023-05-10T18:18:58.176Z,36.95
2023-05-10T18:21:26.151Z,37.17
2023-05-10T18:23:53.899Z,37.33
2023-05-10T18:26:21.580Z,37.37
2023-05-10T18:28:49.320Z,37.44
2023-05-10T18:31:16.996Z,37.67
2023-05-10T18:33:44.650Z,37.67
2023-05-10T18:36:12.252Z,37.76
2023-05-10T18:38:40.372Z,37.92
2023-05-10T18:41:08.883Z,37.85
2023-05-10T18:43:36.668Z,38.01
2023-05-10T18:46:04.334Z,38.09
2023-05-10T18:48:31.994Z,38.25
2023-05-10T18:50:59.589Z,38.19
2023-05-10T18:53:27.218Z,38.46
2023-05-10T18:55:54.826Z,38.97
2023-05-10T18:58:22.418Z,38.81
2023-05-10T19:00:50.028Z,38.81
2023-05-10T19:03:17.626Z,38.99
2023-05-10T19:05:47.213Z,39.28
2023-05-10T19:08:14.822Z,39.25
2023-05-10T19:10:42.439Z,39.36
2023-05-10T19:13:10.080Z,39.42
2023-05-10T19:15:37.759Z,39.44
2023-05-10T19:18:05.530Z,39.54
2023-05-10T19:20:33.211Z,39.71
2023-05-10T19:23:09.845Z,39.97
2023-05-10T19:25:39.487Z,40.18
2023-05-10T19:28:09.072Z,40.09
2023-05-10T19:30:37.361Z,40.34
2023-05-10T19:33:06.506Z,40.67
2023-05-10T19:35:34.142Z,40.67
2023-05-10T19:38:01.797Z,40.87
2023-05-10T19:40:29.528Z,41.14
2023-05-10T19:42:57.227Z,40.91
2023-05-10T19:45:24.934Z,41.22
2023-05-10T19:47:52.864Z,41.14
2023-05-10T19:50:20.743Z,41.15
2023-05-10T19:52:50.657Z,41.58
2023-05-10T19:55:18.649Z,41.83
2023-05-10T19:57:46.580Z,41.71
2023-05-10T20:00:14.221Z,41.90
2023-05-10T20:02:41.874Z,42.10
2023-05-10T20:05:09.568Z,42.18
2023-05-10T20:07:37.462Z,42.20
2023-05-10T20:10:05.125Z,42.31
2023-05-10T20:12:33.032Z,42.53
2023-05-10T20:15:00.743Z,42.62
2023-05-10T20:17:28.424Z,42.62
2023-05-10T20:19:56.075Z,42.55
2023-05-10T20:22:23.670Z,42.78
2023-05-10T20:24:53.201Z,42.94
2023-05-10T20:27:22.018Z,43.04
2023-05-10T20:29:49.661Z,43.10
2023-05-10T20:32:17.252Z,43.16
2023-05-10T20:34:45.162Z,43.04
2023-05-10T20:37:13.402Z,43.15
2023-05-10T20:39:41.152Z,43.14
2023-05-10T20:42:09.276Z,43.32
2023-05-10T20:44:36.932Z,43.70
2023-05-10T20:47:04.539Z,43.90
2023-05-10T20:49:32.186Z,43.67
2023-05-10T20:51:59.806Z,43.89
2023-05-10T20:54:27.827Z,43.86
2023-05-10T20:56:55.426Z,43.87
2023-05-10T20:59:23.086Z,44.33
2023-05-10T21:01:50.917Z,44.32
2023-05-10T21:04:18.675Z,44.17
2023-05-10T21:06:46.318Z,44.53
2023-05-10T21:09:13.909Z,44.63
2023-05-10T21:11:41.680Z,44.51
2023-05-10T21:14:09.892Z,44.59
2023-05-10T21:16:37.569Z,44.48
2023-05-10T21:19:07.347Z,44.60
2023-05-10T21:21:35.482Z,45.04
2023-05-10T21:24:03.184Z,44.98
2023-05-10T21:26:31.493Z,44.97
2023-05-10T21:28:59.586Z,45.26
2023-05-10T21:31:27.289Z,45.27
2023-05-10T21:33:54.957Z,45.46
2023-05-10T21:36:22.960Z,45.53
2023-05-10T21:38:50.948Z,45.54
2023-05-10T21:41:18.746Z,45.59
2023-05-10T21:43:46.378Z,45.73
2023-05-10T21:46:14.479Z,45.93
2023-05-10T21:48:42.135Z,45.96
2023-05-10T21:51:09.776Z,45.91
2023-05-10T21:53:39.146Z,45.98
2023-05-10T21:56:07.452Z,45.99
2023-05-10T21:58:35.072Z,46.20
2023-05-10T22:01:03.499Z,45.98
2023-05-10T22:03:31.230Z,46.22
2023-05-10T22:05:58.867Z,46.47
2023-05-10T22:08:26.857Z,46.41
2023-05-10T22:10:54.610Z,46.55
2023-05-10T22:13:22.237Z,46.63
2023-05-10T22:15:49.979Z,46.79
2023-05-10T22:18:17.668Z,46.77
2023-05-10T22:20:45.565Z,46.97
2023-05-10T22:23:13.199Z,47.02
2023-05-10T22:25:40.869Z,47.03
2023-05-10T22:28:09.320Z,47.19
2023-05-10T22:30:37.100Z,47.60
2023-05-10T22:33:04.802Z,47.95
2023-05-10T22:35:32.465Z,47.58
2023-05-10T22:38:00.128Z,47.61
2023-05-10T22:40:28.002Z,47.41
2023-05-10T22:42:55.622Z,47.37
2023-05-10T22:45:23.307Z,47.79
2023-05-10T22:47:51.027Z,47.76
2023-05-10T22:50:19.259Z,47.74
2023-05-10T22:52:47.147Z,47.97
2023-05-10T22:55:14.772Z,48.16
2023-05-10T22:57:42.414Z,48.07
2023-05-10T23:00:10.061Z,48.43
2023-05-10T23:02:37.701Z,48.51
2023-05-10T23:05:05.932Z,48.85
2023-05-10T23:07:33.605Z,48.60
2023-05-10T23:10:01.277Z,48.73
2023-05-10T23:12:31.375Z,49.08
2023-05-10T23:14:59.760Z,49.34
2023-05-10T23:17:27.421Z,49.04
2023-05-10T23:19:55.107Z,49.00
2023-05-10T23:22:22.781Z,48.91
2023-05-10T23:24:50.370Z,48.75
2023-05-10T23:27:18.045Z,48.87
2023-05-10T23:29:45.699Z,49.21
2023-05-10T23:32:13.369Z,49.07
2023-05-10T23:34:41.038Z,49.43
2023-05-10T23:37:08.681Z,49.57
2023-05-10T23:39:36.576Z,50.16
2023-05-10T23:42:04.348Z,50.33
2023-05-10T23:44:31.953Z,50.00
2023-05-10T23:46:59.711Z,50.00
2023-05-10T23:49:27.453Z,49.89
2023-05-10T23:51:55.171Z,49.74
2023-05-10T23:54:22.839Z,49.83
2023-05-10T23:56:51.652Z,50.04
2023-05-10T23:59:19.301Z,50.17
